createdAt,value
2018-07-21T00:00:48.616Z,51.65
2018-07-21T00:01:48.648Z,51.17
2018-07-21T00:02:48.677Z,51.46
2018-07-21T00:03:48.698Z,51.46
2018-07-21T00:04:48.724Z,51.20
2018-07-21T00:05:48.748Z,51.17
2018-07-21T00:06:48.774Z,51.58
2018-07-21T00:07:48.800Z,51.75
2018-07-21T00:08:48.827Z,51.84
2018-07-21T00:09:48.858Z,51.56
2018-07-21T00:10:48.881Z,52.33
2018-07-21T00:11:48.909Z,52.13
2018-07-21T00:12:48.932Z,51.56
2018-07-21T00:13:48.961Z,51.94
2018-07-21T00:14:48.983Z,52.33
2018-07-21T00:15:49.010Z,52.33
2018-07-21T00:16:49.040Z,52.23
2018-07-21T00:17:49.064Z,51.94
2018-07-21T00:18:49.089Z,52.23
2018-07-21T00:19:49.118Z,52.04
2018-07-21T00:20:49.146Z,52.13
2018-07-21T00:21:49.168Z,51.94
2018-07-21T00:22:49.194Z,52.04
2018-07-21T00:23:49.220Z,52.33
2018-07-21T00:24:49.252Z,51.56
2018-07-21T00:25:49.274Z,52.23
2018-07-21T00:26:49.305Z,51.94
2018-07-21T00:27:49.324Z,53.29
2018-07-21T00:28:49.352Z,53.00
2018-07-21T00:29:49.381Z,52.13
2018-07-21T00:30:49.405Z,53.00
2018-07-21T00:31:49.428Z,52.52
2018-07-21T00:32:49.456Z,52.91
2018-07-21T00:33:49.486Z,52.23
2018-07-21T00:34:49.507Z,52.71
2018-07-21T00:35:49.537Z,52.33
2018-07-21T00:36:49.563Z,52.42
2018-07-21T00:37:49.588Z,52.52
2018-07-21T00:38:49.616Z,52.52
2018-07-21T00:39:49.638Z,52.49
2018-07-21T00:40:49.660Z,52.78
2018-07-21T00:41:49.695Z,52.87
2018-07-21T00:42:49.716Z,52.23
2018-07-21T00:43:49.742Z,52.69
2018-07-21T00:44:49.773Z,52.78
2018-07-21T00:45:49.798Z,52.69
2018-07-21T00:46:49.829Z,52.69
2018-07-21T00:47:49.846Z,52.87
2018-07-21T00:48:49.874Z,52.40
2018-07-21T00:49:49.905Z,52.40
2018-07-21T00:50:49.926Z,52.30
2018-07-21T00:51:49.951Z,52.30
2018-07-21T00:52:49.977Z,52.78
2018-07-21T00:53:50.002Z,53.29
2018-07-21T00:54:50.034Z,53.27
2018-07-21T00:55:50.058Z,53.17
2018-07-21T00:56:50.084Z,53.19
2018-07-21T00:57:50.108Z,52.97
2018-07-21T00:58:50.144Z,53.17
2018-07-21T00:59:50.159Z,53.17
2018-07-21T01:00:50.192Z,52.97
2018-07-21T01:01:50.220Z,52.97
2018-07-21T01:02:50.239Z,53.07
2018-07-21T01:03:50.266Z,52.97
2018-07-21T01:04:50.291Z,53.17
2018-07-21T01:05:50.319Z,52.97
2018-07-21T01:06:50.344Z,52.87
2018-07-21T01:07:50.372Z,53.74
2018-07-21T01:08:50.398Z,53.65
2018-07-21T01:09:50.422Z,53.65
2018-07-21T01:10:50.445Z,54.22
2018-07-21T01:11:50.479Z,54.22
2018-07-21T01:12:50.497Z,54.22
2018-07-21T01:13:50.525Z,54.22
2018-07-21T01:14:50.549Z,53.94
2018-07-21T01:15:50.582Z,54.42
2018-07-21T01:16:50.601Z,54.22
2018-07-21T01:17:50.630Z,54.22
2018-07-21T01:18:50.652Z,54.32
2018-07-21T01:19:50.680Z,53.84
2018-07-21T01:20:50.710Z,54.03
2018-07-21T01:21:50.733Z,53.94
2018-07-21T01:22:50.760Z,53.74
2018-07-21T01:23:50.782Z,53.94
2018-07-21T01:24:50.813Z,53.74
2018-07-21T01:25:50.832Z,54.03
2018-07-21T01:26:50.912Z,53.84
2018-07-21T01:27:50.894Z,53.94
2018-07-21T01:28:50.910Z,54.13
2018-07-21T01:29:50.939Z,54.52
2018-07-21T01:30:50.968Z,54.42
2018-07-21T01:31:50.992Z,54.42
2018-07-21T01:32:51.016Z,54.22
2018-07-21T01:33:51.050Z,54.42
2018-07-21T01:34:51.070Z,54.49
2018-07-21T01:35:51.099Z,54.68
2018-07-21T01:36:51.120Z,54.58
2018-07-21T01:37:51.146Z,54.78
2018-07-21T01:38:51.167Z,55.16
2018-07-21T01:39:51.194Z,55.16
2018-07-21T01:40:51.228Z,55.07
2018-07-21T01:41:51.247Z,55.26
2018-07-21T01:42:51.280Z,55.29
2018-07-21T01:43:51.301Z,55.09
2018-07-21T01:44:51.324Z,55.29
2018-07-21T01:45:51.363Z,55.29
2018-07-21T01:46:51.376Z,55.09
2018-07-21T01:47:51.408Z,55.29
2018-07-21T01:48:51.437Z,55.19
2018-07-21T01:49:51.456Z,55.19
2018-07-21T01:50:51.482Z,55.19
2018-07-21T01:51:51.508Z,55.09
2018-07-21T01:52:51.530Z,55.29
2018-07-21T01:53:51.561Z,55.48
2018-07-21T01:54:51.584Z,55.09
2018-07-21T01:55:51.612Z,55.67
2018-07-21T01:56:51.636Z,55.48
2018-07-21T01:57:51.664Z,55.48
2018-07-21T01:58:51.686Z,55.48
2018-07-21T01:59:51.719Z,55.96
2018-07-21T02:00:51.742Z,55.74
2018-07-21T02:01:51.774Z,55.96
2018-07-21T02:02:51.790Z,56.54
2018-07-21T02:03:51.822Z,56.92
2018-07-21T02:04:51.850Z,56.25
2018-07-21T02:05:51.864Z,56.73
2018-07-21T02:06:51.903Z,56.73
2018-07-21T02:07:51.922Z,57.21
2018-07-21T02:08:51.945Z,57.02
2018-07-21T02:09:51.976Z,57.31
2018-07-21T02:10:52.002Z,57.31
2018-07-21T02:11:52.028Z,56.99
2018-07-21T02:12:52.054Z,57.37
2018-07-21T02:13:52.076Z,57.18
2018-07-21T02:14:52.102Z,57.47
2018-07-21T02:15:52.127Z,57.09
2018-07-21T02:16:52.156Z,56.99
2018-07-21T02:17:52.186Z,56.99
2018-07-21T02:18:52.222Z,56.99
2018-07-21T02:19:52.230Z,57.37
2018-07-21T02:20:52.258Z,57.18
2018-07-21T02:21:52.283Z,57.09
2018-07-21T02:22:52.310Z,57.47
2018-07-21T02:23:52.363Z,57.18
2018-07-21T02:24:52.359Z,57.47
2018-07-21T02:25:52.386Z,57.57
2018-07-21T02:26:52.410Z,57.37
2018-07-21T02:27:52.441Z,57.67
2018-07-21T02:28:52.464Z,57.67
2018-07-21T02:29:52.492Z,56.90
2018-07-21T02:30:52.516Z,56.90
2018-07-21T02:31:52.602Z,57.09
2018-07-21T02:32:52.566Z,57.18
2018-07-21T02:33:52.596Z,57.47
2018-07-21T02:34:52.622Z,57.47
2018-07-21T02:35:52.648Z,57.47
2018-07-21T02:36:52.674Z,57.47
2018-07-21T02:37:52.698Z,57.09
2018-07-21T02:38:52.722Z,56.60
2018-07-21T02:39:52.747Z,56.80
2018-07-21T02:40:52.773Z,56.51
2018-07-21T02:41:52.800Z,56.41
2018-07-21T02:42:52.829Z,57.09
2018-07-21T02:43:52.850Z,57.18
2018-07-21T02:44:52.873Z,56.41
2018-07-21T02:45:52.904Z,56.60
2018-07-21T02:46:52.927Z,56.99
2018-07-21T02:47:52.954Z,57.28
2018-07-21T02:48:52.982Z,57.67
2018-07-21T02:49:53.004Z,57.37
2018-07-21T02:50:53.027Z,57.47
2018-07-21T02:51:53.053Z,57.47
2018-07-21T02:52:53.083Z,57.18
2018-07-21T02:53:53.109Z,57.06
2018-07-21T02:54:53.139Z,57.15
2018-07-21T02:55:53.158Z,57.64
2018-07-21T02:56:53.186Z,57.83
2018-07-21T02:57:53.208Z,57.73
2018-07-21T02:58:53.236Z,57.54
2018-07-21T02:59:53.259Z,57.15
2018-07-21T03:00:53.290Z,57.35
2018-07-21T03:01:53.314Z,57.45
2018-07-21T03:02:53.334Z,57.15
2018-07-21T03:03:53.362Z,57.54
2018-07-21T03:04:53.387Z,57.45
2018-07-21T03:05:53.416Z,57.54
2018-07-21T03:06:53.439Z,58.02
2018-07-21T03:07:53.461Z,58.02
2018-07-21T03:08:53.493Z,58.22
2018-07-21T03:09:53.544Z,57.45
2018-07-21T03:10:53.545Z,57.35
2018-07-21T03:11:53.564Z,57.64
2018-07-21T03:12:53.592Z,57.64
2018-07-21T03:13:53.617Z,57.37
2018-07-21T03:14:53.647Z,57.83
2018-07-21T03:15:53.679Z,57.15
2018-07-21T03:16:53.694Z,57.15
2018-07-21T03:17:53.717Z,57.25
2018-07-21T03:18:53.756Z,57.15
2018-07-21T03:19:53.777Z,57.15
2018-07-21T03:20:53.807Z,56.96
2018-07-21T03:21:53.824Z,57.45
2018-07-21T03:22:53.845Z,57.06
2018-07-21T03:23:53.876Z,57.15
2018-07-21T03:24:53.901Z,56.67
2018-07-21T03:25:53.929Z,57.06
2018-07-21T03:26:53.955Z,56.96
2018-07-21T03:27:53.977Z,57.15
2018-07-21T03:28:54.007Z,56.67
2018-07-21T03:29:54.029Z,56.58
2018-07-21T03:30:54.059Z,56.29
2018-07-21T03:31:54.076Z,56.58
2018-07-21T03:32:54.106Z,56.32
2018-07-21T03:33:54.134Z,56.77
2018-07-21T03:34:54.154Z,56.10
2018-07-21T03:35:54.185Z,56.48
2018-07-21T03:36:54.209Z,56.29
2018-07-21T03:37:54.230Z,56.38
2018-07-21T03:38:54.251Z,56.58
2018-07-21T03:39:54.283Z,56.20
2018-07-21T03:40:54.309Z,56.48
2018-07-21T03:41:54.337Z,56.29
2018-07-21T03:42:54.357Z,56.29
2018-07-21T03:43:54.383Z,56.10
2018-07-21T03:44:54.413Z,56.38
2018-07-21T03:45:54.438Z,56.58
2018-07-21T03:46:54.460Z,56.38
2018-07-21T03:47:54.488Z,55.90
2018-07-21T03:48:54.514Z,56.10
2018-07-21T03:49:54.537Z,56.96
2018-07-21T03:50:54.565Z,56.58
2018-07-21T03:51:54.588Z,56.20
2018-07-21T03:52:54.613Z,56.10
2018-07-21T03:53:54.643Z,55.90
2018-07-21T03:54:54.667Z,56.58
2018-07-21T03:55:54.693Z,56.10
2018-07-21T03:56:54.715Z,56.29
2018-07-21T03:57:54.747Z,56.38
2018-07-21T03:58:54.766Z,56.29
2018-07-21T03:59:54.794Z,56.20
2018-07-21T04:00:54.815Z,56.58
2018-07-21T04:01:54.854Z,56.77
2018-07-21T04:02:54.871Z,56.67
2018-07-21T04:03:54.891Z,56.67
2018-07-21T04:04:54.921Z,56.96
2018-07-21T04:05:54.951Z,56.96
2018-07-21T04:06:54.972Z,56.96
2018-07-21T04:07:54.995Z,57.15
2018-07-21T04:08:55.040Z,56.58
2018-07-21T04:09:55.049Z,56.96
2018-07-21T04:10:55.069Z,57.73
2018-07-21T04:11:55.104Z,57.64
2018-07-21T04:12:55.127Z,57.73
2018-07-21T04:13:55.153Z,57.06
2018-07-21T04:14:55.176Z,57.35
2018-07-21T04:15:55.199Z,57.35
2018-07-21T04:16:55.235Z,57.83
2018-07-21T04:17:55.251Z,57.15
2018-07-21T04:18:55.275Z,56.87
2018-07-21T04:19:55.299Z,57.15
2018-07-21T04:20:55.332Z,56.58
2018-07-21T04:21:55.357Z,56.96
2018-07-21T04:22:55.381Z,56.96
2018-07-21T04:23:55.405Z,57.25
2018-07-21T04:24:55.433Z,57.35
2018-07-21T04:25:55.455Z,57.15
2018-07-21T04:26:55.483Z,57.64
2018-07-21T04:27:55.507Z,57.64
2018-07-21T04:28:55.531Z,57.54
2018-07-21T04:29:55.561Z,57.35
2018-07-21T04:30:55.582Z,57.35
2018-07-21T04:31:55.613Z,57.15
2018-07-21T04:32:55.635Z,57.25
2018-07-21T04:33:55.659Z,57.25
2018-07-21T04:34:55.685Z,57.35
2018-07-21T04:35:55.710Z,57.25
2018-07-21T04:36:55.740Z,57.06
2018-07-21T04:37:55.774Z,57.15
2018-07-21T04:38:55.787Z,57.25
2018-07-21T04:39:55.811Z,57.15
2018-07-21T04:40:55.838Z,56.96
2018-07-21T04:41:55.883Z,57.15
2018-07-21T04:42:55.889Z,56.87
2018-07-21T04:43:55.913Z,56.48
2018-07-21T04:44:55.941Z,56.90
2018-07-21T04:45:55.961Z,56.51
2018-07-21T04:46:55.987Z,56.38
2018-07-21T04:47:56.018Z,56.38
2018-07-21T04:48:56.044Z,56.03
2018-07-21T04:49:56.071Z,55.93
2018-07-21T04:50:56.099Z,56.03
2018-07-21T04:51:56.119Z,56.03
2018-07-21T04:52:56.147Z,56.32
2018-07-21T04:53:56.176Z,56.41
2018-07-21T04:54:56.195Z,56.70
2018-07-21T04:55:56.221Z,57.28
2018-07-21T04:56:56.256Z,57.76
2018-07-21T04:57:56.273Z,57.67
2018-07-21T04:58:56.298Z,57.31
2018-07-21T04:59:56.324Z,57.09
2018-07-21T05:00:56.427Z,57.28
2018-07-21T05:01:56.381Z,57.12
2018-07-21T05:02:56.401Z,57.12
2018-07-21T05:03:56.430Z,57.12
2018-07-21T05:04:56.462Z,57.40
2018-07-21T05:05:56.477Z,56.92
2018-07-21T05:06:56.509Z,56.63
2018-07-21T05:07:56.531Z,57.12
2018-07-21T05:08:56.560Z,57.31
2018-07-21T05:09:56.581Z,56.73
2018-07-21T05:10:56.608Z,56.05
2018-07-21T05:11:56.637Z,55.96
2018-07-21T05:12:56.659Z,55.67
2018-07-21T05:13:56.693Z,55.60
2018-07-21T05:14:56.712Z,55.60
2018-07-21T05:15:56.742Z,55.79
2018-07-21T05:16:56.768Z,55.70
2018-07-21T05:17:56.790Z,55.70
2018-07-21T05:18:56.820Z,55.70
2018-07-21T05:19:56.882Z,55.22
2018-07-21T05:20:56.868Z,55.79
2018-07-21T05:21:56.901Z,55.51
2018-07-21T05:22:56.923Z,55.70
2018-07-21T05:23:56.949Z,56.18
2018-07-21T05:24:56.975Z,56.66
2018-07-21T05:25:57.004Z,56.57
2018-07-21T05:26:57.029Z,56.66
2018-07-21T05:27:57.053Z,56.18
2018-07-21T05:28:57.076Z,57.05
2018-07-21T05:29:57.103Z,57.05
2018-07-21T05:30:57.132Z,57.14
2018-07-21T05:31:57.158Z,56.47
2018-07-21T05:32:57.192Z,56.98
2018-07-21T05:33:57.213Z,56.40
2018-07-21T05:34:57.242Z,56.01
2018-07-21T05:35:57.264Z,56.79
2018-07-21T05:36:57.288Z,55.44
2018-07-21T05:37:57.318Z,54.76
2018-07-21T05:38:57.385Z,54.28
2018-07-21T05:39:57.368Z,55.54
2018-07-21T05:40:57.391Z,55.54
2018-07-21T05:41:57.422Z,55.85
2018-07-21T05:42:57.446Z,54.47
2018-07-21T05:43:57.474Z,54.47
2018-07-21T05:44:57.536Z,54.11
2018-07-21T05:45:57.527Z,54.31
2018-07-21T05:46:57.552Z,54.60
2018-07-21T05:47:57.577Z,54.69
2018-07-21T05:48:57.607Z,54.50
2018-07-21T05:49:57.633Z,54.88
2018-07-21T05:50:57.657Z,54.79
2018-07-21T05:51:57.684Z,54.88
2018-07-21T05:52:57.717Z,54.50
2018-07-21T05:53:57.740Z,54.05
2018-07-21T05:54:57.772Z,54.02
2018-07-21T05:55:57.803Z,54.50
2018-07-21T05:56:57.819Z,54.31
2018-07-21T05:57:57.847Z,54.02
2018-07-21T05:58:57.879Z,54.33
2018-07-21T05:59:57.901Z,54.62
2018-07-21T06:00:57.927Z,55.01
2018-07-21T06:01:57.949Z,53.85
2018-07-21T06:02:58.026Z,53.95
2018-07-21T06:03:58.007Z,53.95
2018-07-21T06:04:58.033Z,54.53
2018-07-21T06:05:58.065Z,54.53
2018-07-21T06:06:58.085Z,54.14
2018-07-21T06:07:58.113Z,53.85
2018-07-21T06:08:58.140Z,53.95
2018-07-21T06:09:58.175Z,54.14
2018-07-21T06:10:58.207Z,54.05
2018-07-21T06:11:58.221Z,53.85
2018-07-21T06:12:58.249Z,52.79
2018-07-21T06:13:58.281Z,53.85
2018-07-21T06:14:58.319Z,54.14
2018-07-21T06:15:58.328Z,52.89
2018-07-21T06:16:58.361Z,52.98
2018-07-21T06:17:58.417Z,52.98
2018-07-21T06:18:58.409Z,53.95
2018-07-21T06:19:58.436Z,53.20
2018-07-21T06:20:58.463Z,54.24
2018-07-21T06:21:58.491Z,52.43
2018-07-21T06:22:58.517Z,52.81
2018-07-21T06:23:58.549Z,52.62
2018-07-21T06:24:58.573Z,53.20
2018-07-21T06:25:58.597Z,53.30
2018-07-21T06:26:58.627Z,53.01
2018-07-21T06:27:58.859Z,52.72
2018-07-21T06:28:58.679Z,52.62
2018-07-21T06:29:58.705Z,53.01
2018-07-21T06:30:58.735Z,53.11
2018-07-21T06:31:58.761Z,53.20
2018-07-21T06:32:58.893Z,52.91
2018-07-21T06:33:58.823Z,52.81
2018-07-21T06:34:58.843Z,52.62
2018-07-21T06:35:58.869Z,52.62
2018-07-21T06:36:58.891Z,52.43
2018-07-21T06:37:58.921Z,52.72
2018-07-21T06:38:58.959Z,52.43
2018-07-21T06:39:58.979Z,52.62
2018-07-21T06:40:59.011Z,52.43
2018-07-21T06:41:59.031Z,53.01
2018-07-21T06:42:59.061Z,52.72
2018-07-21T06:43:59.156Z,52.33
2018-07-21T06:44:59.120Z,52.23
2018-07-21T06:45:59.142Z,52.43
2018-07-21T06:46:59.164Z,52.81
2018-07-21T06:47:59.193Z,52.75
2018-07-21T06:48:59.221Z,52.07
2018-07-21T06:49:59.253Z,52.17
2018-07-21T06:50:59.278Z,51.97
2018-07-21T06:51:59.309Z,52.55
2018-07-21T06:52:59.334Z,52.45
2018-07-21T06:53:59.363Z,52.26
2018-07-21T06:54:59.383Z,52.45
2018-07-21T06:55:59.418Z,51.20
2018-07-21T06:56:59.442Z,52.07
2018-07-21T06:57:59.469Z,51.29
2018-07-21T06:58:59.528Z,51.81
2018-07-21T06:59:59.528Z,51.61
2018-07-21T07:00:59.549Z,50.84
2018-07-21T07:01:59.573Z,51.32
2018-07-21T07:02:59.609Z,51.81
2018-07-21T07:03:59.632Z,51.81
2018-07-21T07:04:59.661Z,51.61
2018-07-21T07:05:59.685Z,51.42
2018-07-21T07:06:59.711Z,52.19
2018-07-21T07:07:59.738Z,52.09
2018-07-21T07:08:59.769Z,51.13
2018-07-21T07:09:59.799Z,50.84
2018-07-21T07:10:59.837Z,51.03
2018-07-21T07:11:59.849Z,51.13
2018-07-21T07:12:59.885Z,51.61
2018-07-21T07:13:59.909Z,52.19
2018-07-21T07:14:59.933Z,51.90
2018-07-21T07:15:59.965Z,51.90
2018-07-21T07:16:59.996Z,51.61
2018-07-21T07:18:00.015Z,51.73
2018-07-21T07:19:00.045Z,50.57
2018-07-21T07:20:00.078Z,50.48
2018-07-21T07:21:00.107Z,50.67
2018-07-21T07:22:00.131Z,50.76
2018-07-21T07:23:00.154Z,51.35
2018-07-21T07:24:00.186Z,50.48
2018-07-21T07:25:00.218Z,49.70
2018-07-21T07:26:00.245Z,48.74
2018-07-21T07:27:00.265Z,48.25
2018-07-21T07:28:00.294Z,48.86
2018-07-21T07:29:00.324Z,49.05
2018-07-21T07:30:00.351Z,48.76
2018-07-21T07:31:00.379Z,49.05
2018-07-21T07:32:00.406Z,48.86
2018-07-21T07:33:00.434Z,48.47
2018-07-21T07:34:00.463Z,48.47
2018-07-21T07:35:00.490Z,48.27
2018-07-21T07:36:00.520Z,48.88
2018-07-21T07:37:00.550Z,48.30
2018-07-21T07:38:00.579Z,47.99
2018-07-21T07:39:00.597Z,47.89
2018-07-21T07:40:00.633Z,47.33
2018-07-21T07:41:00.657Z,48.97
2018-07-21T07:42:00.684Z,48.27
2018-07-21T07:43:00.719Z,48.66
2018-07-21T07:44:00.740Z,48.69
2018-07-21T07:45:00.770Z,49.15
2018-07-21T07:46:00.799Z,48.57
2018-07-21T07:47:00.823Z,48.86
2018-07-21T07:48:00.849Z,49.27
2018-07-21T07:49:00.885Z,48.86
2018-07-21T07:50:00.951Z,48.18
2018-07-21T07:51:00.939Z,47.99
2018-07-21T07:52:00.967Z,47.99
2018-07-21T07:53:00.991Z,49.15
2018-07-21T07:54:01.030Z,48.86
2018-07-21T07:55:01.051Z,49.05
2018-07-21T07:56:01.075Z,48.47
2018-07-21T07:57:01.105Z,48.86
2018-07-21T07:58:01.135Z,48.66
2018-07-21T07:59:01.165Z,48.86
2018-07-21T08:00:01.195Z,49.24
2018-07-21T08:01:01.225Z,49.54
2018-07-21T08:02:01.252Z,48.97
2018-07-21T08:03:01.277Z,48.88
2018-07-21T08:04:01.304Z,48.97
2018-07-21T08:05:01.329Z,49.17
2018-07-21T08:06:01.359Z,48.01
2018-07-21T08:07:01.387Z,48.30
2018-07-21T08:08:01.410Z,47.16
2018-07-21T08:09:01.443Z,47.16
2018-07-21T08:10:01.474Z,46.77
2018-07-21T08:11:01.501Z,47.26
2018-07-21T08:12:01.535Z,47.55
2018-07-21T08:13:01.557Z,47.45
2018-07-21T08:14:01.624Z,47.55
2018-07-21T08:15:01.619Z,48.42
2018-07-21T08:16:01.640Z,47.64
2018-07-21T08:17:01.673Z,46.97
2018-07-21T08:18:01.703Z,46.09
2018-07-21T08:19:01.722Z,46.19
2018-07-21T08:20:01.758Z,45.01
2018-07-21T08:21:01.783Z,46.17
2018-07-21T08:22:01.821Z,46.17
2018-07-21T08:23:01.841Z,46.66
2018-07-21T08:24:01.872Z,46.56
2018-07-21T08:25:01.897Z,46.46
2018-07-21T08:26:01.935Z,46.26
2018-07-21T08:27:01.962Z,45.81
2018-07-21T08:28:01.976Z,45.81
2018-07-21T08:29:02.056Z,46.77
2018-07-21T08:30:02.041Z,46.39
2018-07-21T08:31:02.063Z,45.42
2018-07-21T08:32:02.095Z,45.22
2018-07-21T08:33:02.125Z,46.58
2018-07-21T08:34:02.149Z,47.94
2018-07-21T08:35:02.180Z,46.87
2018-07-21T08:36:02.207Z,46.48
2018-07-21T08:37:02.241Z,46.29
2018-07-21T08:38:02.269Z,46.97
2018-07-21T08:39:02.285Z,46.80
2018-07-21T08:40:02.321Z,46.89
2018-07-21T08:41:02.344Z,45.83
2018-07-21T08:42:02.378Z,45.83
2018-07-21T08:43:02.413Z,45.44
2018-07-21T08:44:02.433Z,45.64
2018-07-21T08:45:02.464Z,45.25
2018-07-21T08:46:02.493Z,45.34
2018-07-21T08:47:02.519Z,45.05
2018-07-21T08:48:02.548Z,45.47
2018-07-21T08:49:02.577Z,46.04
2018-07-21T08:50:02.603Z,45.85
2018-07-21T08:51:02.638Z,45.47
2018-07-21T08:52:02.663Z,44.88
2018-07-21T08:53:02.692Z,45.17
2018-07-21T08:54:02.721Z,45.17
2018-07-21T08:55:02.750Z,44.10
2018-07-21T08:56:02.810Z,44.30
2018-07-21T08:57:02.817Z,44.10
2018-07-21T08:58:02.840Z,44.10
2018-07-21T08:59:02.863Z,45.00
2018-07-21T09:00:02.893Z,44.01
2018-07-21T09:01:02.923Z,43.62
2018-07-21T09:02:02.951Z,44.88
2018-07-21T09:03:02.975Z,44.78
2018-07-21T09:04:03.013Z,43.52
2018-07-21T09:05:03.037Z,43.62
2018-07-21T09:06:03.067Z,43.62
2018-07-21T09:07:03.095Z,44.88
2018-07-21T09:08:03.121Z,43.93
2018-07-21T09:09:03.162Z,43.54
2018-07-21T09:10:03.179Z,45.00
2018-07-21T09:11:03.213Z,44.51
2018-07-21T09:12:03.240Z,43.82
2018-07-21T09:13:03.319Z,43.91
2018-07-21T09:14:03.297Z,44.20
2018-07-21T09:15:03.324Z,44.78
2018-07-21T09:16:03.357Z,44.88
2018-07-21T09:17:03.382Z,44.78
2018-07-21T09:18:03.412Z,45.56
2018-07-21T09:19:03.441Z,45.27
2018-07-21T09:20:03.474Z,46.24
2018-07-21T09:21:03.501Z,46.82
2018-07-21T09:22:03.531Z,46.04
2018-07-21T09:23:03.550Z,45.65
2018-07-21T09:24:03.589Z,45.37
2018-07-21T09:25:03.614Z,45.95
2018-07-21T09:26:03.648Z,45.17
2018-07-21T09:27:03.672Z,44.90
2018-07-21T09:28:03.723Z,45.10
2018-07-21T09:29:03.731Z,44.81
2018-07-21T09:30:03.755Z,44.61
2018-07-21T09:31:03.788Z,44.90
2018-07-21T09:32:03.816Z,44.81
2018-07-21T09:33:03.858Z,44.90
2018-07-21T09:34:03.885Z,45.51
2018-07-21T09:35:03.906Z,44.44
2018-07-21T09:36:03.931Z,43.20
2018-07-21T09:37:03.963Z,43.49
2018-07-21T09:38:03.998Z,42.91
2018-07-21T09:39:04.018Z,42.35
2018-07-21T09:40:04.055Z,42.03
2018-07-21T09:41:04.081Z,42.15
2018-07-21T09:42:04.104Z,42.25
2018-07-21T09:43:04.132Z,41.96
2018-07-21T09:44:04.165Z,42.44
2018-07-21T09:45:04.187Z,40.99
2018-07-21T09:46:04.222Z,40.99
2018-07-21T09:47:04.251Z,40.99
2018-07-21T09:48:04.280Z,41.86
2018-07-21T09:49:04.313Z,42.25
2018-07-21T09:50:04.332Z,43.10
2018-07-21T09:51:04.368Z,42.52
2018-07-21T09:52:04.394Z,42.35
2018-07-21T09:53:04.428Z,42.15
2018-07-21T09:54:04.458Z,41.86
2018-07-21T09:55:05.703Z,41.49
2018-07-21T09:56:04.622Z,40.52
2018-07-21T09:57:04.547Z,40.34
2018-07-21T09:58:04.576Z,40.25
2018-07-21T09:59:04.603Z,40.54
2018-07-21T10:00:04.629Z,39.67
2018-07-21T10:01:04.663Z,40.81
2018-07-21T10:02:04.692Z,40.81
2018-07-21T10:03:04.728Z,40.13
2018-07-21T10:04:04.754Z,39.76
2018-07-21T10:05:04.779Z,40.44
2018-07-21T10:06:04.810Z,39.08
2018-07-21T10:07:04.836Z,39.75
2018-07-21T10:08:04.878Z,39.57
2018-07-21T10:09:04.902Z,39.86
2018-07-21T10:10:04.929Z,39.55
2018-07-21T10:11:04.964Z,39.06
2018-07-21T10:12:04.994Z,39.28
2018-07-21T10:13:05.022Z,39.28
2018-07-21T10:14:05.053Z,39.76
2018-07-21T10:15:05.080Z,39.37
2018-07-21T10:16:05.108Z,39.10
2018-07-21T10:17:05.138Z,39.20
2018-07-21T10:18:05.175Z,38.91
2018-07-21T10:19:05.196Z,38.13
2018-07-21T10:20:05.238Z,37.93
2018-07-21T10:21:05.257Z,38.13
2018-07-21T10:22:05.295Z,39.12
2018-07-21T10:23:05.317Z,38.24
2018-07-21T10:24:05.352Z,37.85
2018-07-21T10:25:05.377Z,36.69
2018-07-21T10:26:05.407Z,37.27
2018-07-21T10:27:05.441Z,37.27
2018-07-21T10:28:05.519Z,37.18
2018-07-21T10:29:05.504Z,37.00
2018-07-21T10:30:05.556Z,37.39
2018-07-21T10:31:05.558Z,37.48
2018-07-21T10:32:05.594Z,37.48
2018-07-21T10:33:05.626Z,36.24
2018-07-21T10:34:05.659Z,36.53
2018-07-21T10:35:05.676Z,36.24
2018-07-21T10:36:05.846Z,36.24
2018-07-21T10:37:05.742Z,35.65
2018-07-21T10:38:05.810Z,35.65
2018-07-21T10:39:05.804Z,35.16
2018-07-21T10:40:05.830Z,35.65
2018-07-21T10:41:05.871Z,35.65
2018-07-21T10:42:05.892Z,35.75
2018-07-21T10:43:05.923Z,34.58
2018-07-21T10:44:05.959Z,35.16
2018-07-21T10:45:05.989Z,35.63
2018-07-21T10:46:06.020Z,35.63
2018-07-21T10:47:06.045Z,34.95
2018-07-21T10:48:06.079Z,35.93
2018-07-21T10:49:06.104Z,35.55
2018-07-21T10:50:06.138Z,34.97
2018-07-21T10:51:06.167Z,35.06
2018-07-21T10:52:06.197Z,34.37
2018-07-21T10:53:06.232Z,34.47
2018-07-21T10:54:06.263Z,35.55
2018-07-21T10:55:06.288Z,35.94
2018-07-21T10:56:06.318Z,35.75
2018-07-21T10:57:06.353Z,35.65
2018-07-21T10:58:06.380Z,34.68
2018-07-21T10:59:06.410Z,34.68
2018-07-21T11:00:06.444Z,34.79
2018-07-21T11:01:06.474Z,34.59
2018-07-21T11:02:06.506Z,33.93
2018-07-21T11:03:06.538Z,33.54
2018-07-21T11:04:06.568Z,33.44
2018-07-21T11:05:06.597Z,33.07
2018-07-21T11:06:06.636Z,33.07
2018-07-21T11:07:06.656Z,33.75
2018-07-21T11:08:06.741Z,33.36
2018-07-21T11:09:06.726Z,34.03
2018-07-21T11:10:06.753Z,33.73
2018-07-21T11:11:06.795Z,33.34
2018-07-21T11:12:06.818Z,33.34
2018-07-21T11:13:06.848Z,33.75
2018-07-21T11:14:06.878Z,33.06
2018-07-21T11:15:06.922Z,33.17
2018-07-21T11:16:06.939Z,32.50
2018-07-21T11:17:06.966Z,32.21
2018-07-21T11:18:07.054Z,32.89
2018-07-21T11:19:07.043Z,32.79
2018-07-21T11:20:08.074Z,32.21
2018-07-21T11:21:07.096Z,32.40
2018-07-21T11:22:07.123Z,32.11
2018-07-21T11:23:07.160Z,33.17
2018-07-21T11:24:07.189Z,32.78
2018-07-21T11:25:07.224Z,32.96
2018-07-21T11:26:07.255Z,32.67
2018-07-21T11:27:07.281Z,32.86
2018-07-21T11:28:07.315Z,32.86
2018-07-21T11:29:07.352Z,34.61
2018-07-21T11:30:07.377Z,33.73
2018-07-21T11:31:07.413Z,33.14
2018-07-21T11:32:07.442Z,34.79
2018-07-21T11:33:07.470Z,34.01
2018-07-21T11:34:07.500Z,33.90
2018-07-21T11:35:07.574Z,35.16
2018-07-21T11:36:07.782Z,34.09
2018-07-21T11:37:07.598Z,33.88
2018-07-21T11:38:07.626Z,34.27
2018-07-21T11:39:07.658Z,34.27
2018-07-21T11:40:07.685Z,34.66
2018-07-21T11:41:07.714Z,35.06
2018-07-21T11:42:07.756Z,35.94
2018-07-21T11:43:07.780Z,34.79
2018-07-21T11:44:07.814Z,34.59
2018-07-21T11:45:07.841Z,33.82
2018-07-21T11:46:07.873Z,34.69
2018-07-21T11:47:07.903Z,35.78
2018-07-21T11:48:07.939Z,35.78
2018-07-21T11:49:07.966Z,34.73
2018-07-21T11:50:07.988Z,33.09
2018-07-21T11:51:08.028Z,32.40
2018-07-21T11:52:08.056Z,31.84
2018-07-21T11:53:08.083Z,32.32
2018-07-21T11:54:08.121Z,32.16
2018-07-21T11:55:08.158Z,29.79
2018-07-21T11:56:08.183Z,28.93
2018-07-21T11:57:08.210Z,27.70
2018-07-21T11:58:08.243Z,26.62
2018-07-21T11:59:08.295Z,27.00
2018-07-21T12:00:08.318Z,26.51
2018-07-21T12:01:08.342Z,25.51
2018-07-21T12:02:08.376Z,26.20
2018-07-21T12:03:08.408Z,26.78
2018-07-21T12:04:08.436Z,26.68
2018-07-21T12:05:08.474Z,27.55
2018-07-21T12:06:08.504Z,28.22
2018-07-21T12:07:08.542Z,28.30
2018-07-21T12:08:08.574Z,28.58
2018-07-21T12:09:08.606Z,29.45
2018-07-21T12:10:08.640Z,29.36
2018-07-21T12:11:08.675Z,29.55
2018-07-21T12:12:08.707Z,29.55
2018-07-21T12:13:08.787Z,28.89
2018-07-21T12:14:08.778Z,28.51
2018-07-21T12:15:08.806Z,26.87
2018-07-21T12:16:08.850Z,26.97
2018-07-21T12:17:08.873Z,26.40
2018-07-21T12:18:08.919Z,26.40
2018-07-21T12:19:08.937Z,26.20
2018-07-21T12:20:08.976Z,26.58
2018-07-21T12:21:09.010Z,26.96
2018-07-21T12:22:09.050Z,27.55
2018-07-21T12:23:09.080Z,28.31
2018-07-21T12:24:09.109Z,28.71
2018-07-21T12:25:09.150Z,28.51
2018-07-21T12:26:09.186Z,28.41
2018-07-21T12:27:09.214Z,28.71
2018-07-21T12:28:09.244Z,27.73
2018-07-21T12:29:09.283Z,27.83
2018-07-21T12:30:09.317Z,28.02
2018-07-21T12:31:09.345Z,28.02
2018-07-21T12:32:09.387Z,28.30
2018-07-21T12:33:09.415Z,28.59
2018-07-21T12:34:09.483Z,28.30
2018-07-21T12:35:09.489Z,28.41
2018-07-21T12:36:09.512Z,28.59
2018-07-21T12:37:09.551Z,28.59
2018-07-21T12:38:09.583Z,28.88
2018-07-21T12:39:09.617Z,28.86
2018-07-21T12:40:09.694Z,29.74
2018-07-21T12:41:09.690Z,30.23
2018-07-21T12:42:09.719Z,30.02
2018-07-21T12:43:09.747Z,30.43
2018-07-21T12:44:09.786Z,30.71
2018-07-21T12:45:09.815Z,30.02
2018-07-21T12:46:09.848Z,29.45
2018-07-21T12:47:09.895Z,29.74
2018-07-21T12:48:09.912Z,29.35
2018-07-21T12:49:09.948Z,30.74
2018-07-21T12:50:09.984Z,30.25
2018-07-21T12:51:10.020Z,29.38
2018-07-21T12:52:10.046Z,29.69
2018-07-21T12:53:10.079Z,28.63